KORG

Details ICAO KORG
Name ORANGE CO
Region United States
Timezone America/Chicago (UTC-6.0)
Plans Departing 3
Arriving 10
Stats Elevation 13 ft / 4 m (AMSL)
Location 30.068618° -93.804829°
Runways 2
Magnetic Variation 1.529° E
Sunrise 2017-12-12 13:03:24 UTC / 2017-12-12 07:03:24 Local
Sunset 2017-12-12 23:17:36 UTC / 2017-12-12 17:17:36 Local
Advertisement - Login to hide

Runways

ID Width Length Bearing (true) Bearing (mag) Surface Threshold Offset Overrun Length
04 75 ft / 23 m 5,506 ft / 1,678 m 42.01° 40.48° Asphalt 0 ft / 0 m 0 ft / 0 m
13 50 ft / 15 m 3,008 ft / 917 m 137.22° 135.69° Grass 0 ft / 0 m 0 ft / 0 m
22 75 ft / 23 m 5,506 ft / 1,678 m 222.02° 220.49° Asphalt 0 ft / 0 m 0 ft / 0 m
31 50 ft / 15 m 3,008 ft / 917 m 317.22° 315.69° Grass 0 ft / 0 m 0 ft / 0 m

Map

Weather


0- 5 10 15 20 25 30 35+ Temperature / ° C

Clouds and Precipitation
Forecast for 2017-12-12 18:00 UTC. Updated 40 minutes ago

Ground ~20,000 ft ~40,000 ft Winds

METAR

KORG 121755Z AUTO 35010G14KT 10SM CLR 16/01 A3028 RMK AO2 T01580011 10159 20090

TAF

Not found

Frequencies

Recorded 118.97 MHz AWOS 3
Approach 121.30 MHz HOUSTON APP/DEP
Unicom 122.80 MHz CTAF/UNICOM
Warning: Do not use this data for real-world aviation or navigation. No guarantee of current accuracy is given.